NCAR-RAP Real-Time Weather Data

Output produced by METARs form (17 October 2018  16:39 UTC)
found at http://weather.rap.ucar.edu/surface/
 
RJOT 171200Z 13003KT 070V190 9999 FEW025 SCT045 BKN/// 15/12 Q1014
RJOT 171100Z 15004KT 110V200 9999 FEW025 BKN/// 15/11 Q1013
RJOT 171000Z 15005KT 9999 FEW025 SCT050 15/12 Q1013
RJOT 170900Z 14007KT 9999 FEW030 SCT050 16/12 Q1013
RJOT 170800Z 24001KT 9999 FEW030 BKN/// 19/09 Q1012
RJOT 170700Z VRB02KT 9999 FEW030 SCT/// 20/09 Q1012
RJOT 170600Z 28005KT 220V330 9999 FEW025 SCT/// 21/10 Q1012
RJOT 170500Z 34004KT 250V040 9999 FEW025 SCT/// 20/10 Q1011
RJOT 170400Z 29005KT 250V350 9999 FEW020 BKN/// 20/11 Q1011
RJOT 170300Z 30008KT 270V330 9999 FEW020 SCT030 BKN/// 19/13 Q1012
RJOT 170200Z 28006KT 240V320 9999 FEW020 SCT030 BKN/// 19/12 Q1012
RJOT 170100Z VRB04KT 9999 FEW015 SCT020 BKN/// 18/13 Q1013
RJOT 170000Z 24004KT 210V280 9999 FEW015 BKN/// 18/15 Q1013
RJOT 162300Z VRB02KT 9999 FEW003 SCT035 BKN120 15/14 Q1012
RJOT 162200Z 15005KT 9999 PRFG FEW000 SCT040 BKN120 14/13 Q1012
RJOT 162120Z 15005KT 9999 PRFG FEW000 BKN040 14/13 Q1012 RMK 1ST000 5CU040 A2988 FG NW-N
RJOT 161200Z VRB01KT 9999 VCSH FEW020 SCT060 BKN120 16/15 Q1012
RJOT 161100Z 14004KT 100V170 9999 FEW020 BKN120 16/14 Q1011
RJOT 161000Z 15005KT 9999 FEW020 BKN120 17/15 Q1011
RJOT 160900Z 00000KT 9999 FEW020 SCT130 BKN170 18/15 Q1011
RJOT 160800Z 06004KT 9999 FEW020 BKN170 18/14 Q1011
RJOT 160700Z 07004KT 040V130 9999 FEW020 BKN170 19/15 Q1011
RJOT 160600Z 06008KT 9999 FEW020 SCT120 BKN140 20/15 Q1011
RJOT 160500Z 05007KT 020V090 9999 FEW020 SCT120 BKN/// 20/15 Q1012
RJOT 160400Z 06009KT 020V090 9999 FEW020 SCT120 BKN/// 20/15 Q1012
RJOT 160300Z 07006KT 020V110 9999 FEW015 SCT025 BKN120 20/16 Q1013
RJOT 160200Z 07007KT 030V110 9999 FEW015 SCT025 BKN/// 20/16 Q1014
RJOT 160100Z 03003KT 350V080 9999 FEW015 SCT130 BKN/// 18/16 Q1015
RJOT 160000Z VRB01KT 9999 FEW010 SCT025 BKN/// 17/15 Q1015
RJOT 152300Z 14006KT 9999 FEW010 SCT015 BKN/// 16/14 Q1015
RJOT 152200Z 14006KT 9999 FEW010 SCT020 BKN/// 15/13 Q1015
RJOT 152120Z 14007KT 9999 FEW010 SCT180 BKN/// 14/12 Q1015 RMK 1CU010 3AC180 A2999
RJOT 151200Z 14007KT 9999 FEW030 SCT/// 15/13 Q1017
RJOT 151100Z 14008KT 9999 FEW030 SCT/// 15/13 Q1017
RJOT 151000Z 17005KT 9999 FEW030 SCT/// 16/14 Q1016
RJOT 150900Z 14003KT 100V180 9999 FEW030 BKN/// 18/15 Q1016
RJOT 150800Z 12002KT 9999 FEW035 BKN/// 20/14 Q1016
RJOT 150700Z 08003KT 040V120 9999 FEW035 BKN/// 21/14 Q1016
RJOT 150600Z 35003KT 290V050 9999 FEW035 SCT045 BKN/// 21/13 Q1016
RJOT 150500Z 35005KT 300V030 9999 FEW035 SCT045 22/14 Q1016